Wetterdaten: aktuell Samstag, 30.05.2020 01:30
Datum Zeit Temp. A. Feuchte A. Luftdruck Regen Wind Richtung Richtung Taupunkt Windchill Windben
30.05.2020 01:30 6,3 C 88 % 1024,7 hPa 0,0 l/m 0,0 km/h (0 Bft) N-NO 20 4,5 C 6,3 C 0,0 km/h (0 Bft)
30.05.2020 01:25 6,3 C 88 % 1024,7 hPa 0,0 l/m 0,0 km/h (0 Bft) N-NO 20 4,5 C 6,3 C 0,0 km/h (0 Bft)
30.05.2020 01:20 6,3 C 87 % 1024,7 hPa 0,0 l/m 0,0 km/h (0 Bft) N-NO 20 4,3 C 6,3 C 0,0 km/h (0 Bft)
30.05.2020 01:15 6,4 C 87 % 1024,7 hPa 0,0 l/m 0,0 km/h (0 Bft) N-NO 20 4,4 C 6,4 C 0,0 km/h (0 Bft)
30.05.2020 01:10 6,4 C 87 % 1024,7 hPa 0,0 l/m 0,0 km/h (0 Bft) N-NO 20 4,4 C 6,4 C 0,0 km/h (0 Bft)
30.05.2020 01:05 6,4 C 87 % 1024,7 hPa 0,0 l/m 0,0 km/h (0 Bft) N-NO 20 4,4 C 6,4 C 0,0 km/h (0 Bft)
30.05.2020 01:00 6,4 C 87 % 1024,8 hPa 0,0 l/m 0,0 km/h (0 Bft) N-NO 20 4,4 C 6,4 C 0,0 km/h (0 Bft)
30.05.2020 00:55 6,4 C 87 % 1024,8 hPa 0,0 l/m 0,0 km/h (0 Bft) N-NO 20 4,4 C 6,4 C 0,0 km/h (0 Bft)
30.05.2020 00:50 6,4 C 87 % 1024,8 hPa 0,0 l/m 0,0 km/h (0 Bft) N-NO 20 4,4 C 6,4 C 0,0 km/h (0 Bft)
30.05.2020 00:45 6,4 C 87 % 1024,8 hPa 0,0 l/m 0,0 km/h (0 Bft) N-NO 20 4,4 C 6,4 C 0,0 km/h (0 Bft)
30.05.2020 00:40 6,4 C 87 % 1024,9 hPa 0,0 l/m 0,0 km/h (0 Bft) N-NO 20 4,4 C 6,4 C 0,0 km/h (0 Bft)
30.05.2020 00:35 6,5 C 86 % 1025,0 hPa 0,0 l/m 0,0 km/h (0 Bft) N-NO 20 4,3 C 6,5 C 0,0 km/h (0 Bft)
30.05.2020 00:30 6,6 C 86 % 1024,9 hPa 0,0 l/m 0,0 km/h (0 Bft) N-NO 20 4,4 C 6,6 C 0,0 km/h (0 Bft)
30.05.2020 00:25 6,7 C 85 % 1025,0 hPa 0,0 l/m 0,0 km/h (0 Bft) N-NO 20 4,4 C 6,7 C 0,0 km/h (0 Bft)
30.05.2020 00:20 6,8 C 84 % 1025,0 hPa 0,0 l/m 0,0 km/h (0 Bft) N-NO 20 4,3 C 6,8 C 0,0 km/h (0 Bft)
30.05.2020 00:15 7,0 C 83 % 1025,0 hPa 0,0 l/m 0,0 km/h (0 Bft) N-NO 20 4,3 C 7,0 C 0,0 km/h (0 Bft)
30.05.2020 00:10 7,2 C 82 % 1025,0 hPa 0,0 l/m 0,0 km/h (0 Bft) N-NO 20 4,3 C 7,2 C 0,0 km/h (0 Bft)
30.05.2020 00:05 7,6 C 80 % 1025,1 hPa 0,0 l/m 0,0 km/h (0 Bft) N-NO 20 4,4 C 7,6 C 0,0 km/h (0 Bft)
30.05.2020 00:00 7,8 C 79 % 1025,2 hPa 0,0 l/m 0,0 km/h (0 Bft) N-NO 20 4,4 C 7,8 C 0,0 km/h (0 Bft)
29.05.2020 23:55 7,9 C 79 % 1025,1 hPa 0,0 l/m 0,0 km/h (0 Bft) N-NO 20 4,5 C 7,9 C 0,0 km/h (0 Bft)
29.05.2020 23:50 7,8 C 80 % 1025,1 hPa 0,0 l/m 0,0 km/h (0 Bft) N-NO 20 4,6 C 7,8 C 0,0 km/h (0 Bft)
29.05.2020 23:45 7,7 C 81 % 1025,2 hPa 0,0 l/m 0,0 km/h (0 Bft) N-NO 20 4,7 C 7,7 C 0,0 km/h (0 Bft)
29.05.2020 23:40 7,6 C 81 % 1025,2 hPa 0,0 l/m 0,0 km/h (0 Bft) N-NO 20 4,6 C 7,6 C 0,0 km/h (0 Bft)
29.05.2020 23:35 7,7 C 81 % 1025,3 hPa 0,0 l/m 0,0 km/h (0 Bft) N-NO 20 4,7 C 7,7 C 0,0 km/h (0 Bft)
29.05.2020 23:30 7,8 C 80 % 1025,3 hPa 0,0 l/m 0,0 km/h (0 Bft) N-NO 20 4,6 C 7,8 C 0,0 km/h (0 Bft)
29.05.2020 23:25 8,1 C 79 % 1025,3 hPa 0,0 l/m 0,0 km/h (0 Bft) N-NO 20 4,7 C 8,1 C 0,0 km/h (0 Bft)
29.05.2020 23:20 8,4 C 77 % 1025,2 hPa 0,0 l/m 0,0 km/h (0 Bft) N-NO 19 4,6 C 8,4 C 0,0 km/h (0 Bft)
29.05.2020 23:15 8,8 C 72 % 1025,1 hPa 0,0 l/m 0,0 km/h (0 Bft) N-NO 19 4,0 C 8,8 C 0,0 km/h (0 Bft)
29.05.2020 23:10 8,8 C 72 % 1025,1 hPa 0,0 l/m 0,0 km/h (0 Bft) W 261 4,0 C 8,8 C 0,0 km/h (0 Bft)
29.05.2020 23:05 8,7 C 73 % 1025,1 hPa 0,0 l/m 0,0 km/h (0 Bft) NW 309 4,1 C 8,7 C 0,0 km/h (0 Bft)
29.05.2020 23:00 8,7 C 73 % 1025,1 hPa 0,0 l/m 1,1 km/h (1 Bft) NW 306 4,1 C 8,7 C 3,2 km/h (1 Bft)
29.05.2020 22:55 8,7 C 73 % 1025,1 hPa 0,0 l/m 1,9 km/h (1 Bft) W 275 4,1 C 8,7 C 6,4 km/h (2 Bft)
29.05.2020 22:50 8,7 C 74 % 1025,2 hPa 0,0 l/m 1,5 km/h (1 Bft) SW 234 4,3 C 8,7 C 3,2 km/h (1 Bft)
29.05.2020 22:45 8,7 C 74 % 1025,3 hPa 0,0 l/m 1,0 km/h (0 Bft) W-NW 286 4,3 C 8,7 C 6,4 km/h (2 Bft)
29.05.2020 22:40 8,7 C 74 % 1025,4 hPa 0,0 l/m 2,3 km/h (1 Bft) NW 316 4,3 C 8,7 C 6,4 km/h (2 Bft)
29.05.2020 22:35 8,5 C 75 % 1025,4 hPa 0,0 l/m 1,8 km/h (1 Bft) N-NW 348 4,3 C 8,5 C 4,8 km/h (1 Bft)
29.05.2020 22:30 8,2 C 77 % 1025,4 hPa 0,0 l/m 2,2 km/h (1 Bft) NW 313 4,4 C 8,2 C 12,9 km/h (3 Bft)
29.05.2020 22:25 7,8 C 80 % 1025,4 hPa 0,0 l/m 0,3 km/h (0 Bft) N-NO 13 4,6 C 7,8 C 3,2 km/h (1 Bft)
29.05.2020 22:20 7,7 C 82 % 1025,4 hPa 0,0 l/m 0,0 km/h (0 Bft) O 92 4,8 C 7,7 C 0,0 km/h (0 Bft)
29.05.2020 22:15 7,6 C 83 % 1025,4 hPa 0,0 l/m 0,0 km/h (0 Bft) O 92 4,9 C 7,6 C 0,0 km/h (0 Bft)
29.05.2020 22:10 7,6 C 82 % 1025,5 hPa 0,0 l/m 0,0 km/h (0 Bft) O 92 4,7 C 7,6 C 0,0 km/h (0 Bft)
29.05.2020 22:05 7,6 C 82 % 1025,5 hPa 0,0 l/m 0,0 km/h (0 Bft) O 92 4,7 C 7,6 C 0,0 km/h (0 Bft)
29.05.2020 22:00 7,7 C 81 % 1025,6 hPa 0,0 l/m 0,0 km/h (0 Bft) O 92 4,7 C 7,7 C 0,0 km/h (0 Bft)
29.05.2020 21:55 7,7 C 80 % 1025,6 hPa 0,0 l/m 0,0 km/h (0 Bft) O 92 4,5 C 7,7 C 0,0 km/h (0 Bft)
29.05.2020 21:50 7,8 C 79 % 1025,6 hPa 0,0 l/m 0,0 km/h (0 Bft) O 92 4,4 C 7,8 C 0,0 km/h (0 Bft)
29.05.2020 21:45 7,9 C 78 % 1025,6 hPa 0,0 l/m 0,0 km/h (0 Bft) O 92 4,3 C 7,9 C 0,0 km/h (0 Bft)
29.05.2020 21:40 8,0 C 78 % 1025,6 hPa 0,0 l/m 0,0 km/h (0 Bft) O 92 4,4 C 8,0 C 0,0 km/h (0 Bft)
29.05.2020 21:35 8,1 C 78 % 1025,6 hPa 0,0 l/m 0,0 km/h (0 Bft) O 92 4,5 C 8,1 C 0,0 km/h (0 Bft)
29.05.2020 21:30 8,4 C 75 % 1025,6 hPa 0,0 l/m 0,0 km/h (0 Bft) O 92 4,2 C 8,4 C 0,0 km/h (0 Bft)
29.05.2020 21:25 8,8 C 74 % 1025,5 hPa 0,0 l/m 0,0 km/h (0 Bft) O 92 4,4 C 8,8 C 0,0 km/h (0 Bft)
29.05.2020 21:20 9,2 C 71 % 1025,5 hPa 0,0 l/m 0,0 km/h (0 Bft) N 355 4,2 C 9,2 C 0,0 km/h (0 Bft)
29.05.2020 21:15 9,3 C 69 % 1025,5 hPa 0,0 l/m 0,0 km/h (0 Bft) N-NW 329 3,9 C 9,3 C 0,0 km/h (0 Bft)
29.05.2020 21:10 9,2 C 70 % 1025,5 hPa 0,0 l/m 0,0 km/h (0 Bft) N-NW 329 4,0 C 9,2 C 0,0 km/h (0 Bft)
29.05.2020 21:05 9,2 C 71 % 1025,6 hPa 0,0 l/m 1,3 km/h (1 Bft) N-NW 329 4,2 C 9,2 C 4,8 km/h (1 Bft)
29.05.2020 21:00 9,0 C 71 % 1025,5 hPa 0,0 l/m 0,1 km/h (0 Bft) N-NO 31 4,0 C 9,0 C 1,6 km/h (1 Bft)
29.05.2020 20:55 9,0 C 71 % 1025,5 hPa 0,0 l/m 0,0 km/h (0 Bft) N-NO 31 4,0 C 9,0 C 0,0 km/h (0 Bft)
29.05.2020 20:50 9,1 C 70 % 1025,5 hPa 0,0 l/m 0,0 km/h (0 Bft) N-NO 31 3,9 C 9,1 C 0,0 km/h (0 Bft)
29.05.2020 20:45 9,2 C 70 % 1025,6 hPa 0,0 l/m 0,0 km/h (0 Bft) N-NO 31 4,0 C 9,2 C 0,0 km/h (0 Bft)
29.05.2020 20:40 9,3 C 69 % 1025,5 hPa 0,0 l/m 0,0 km/h (0 Bft) N-NO 31 3,9 C 9,3 C 0,0 km/h (0 Bft)
29.05.2020 20:35 9,6 C 67 % 1025,5 hPa 0,0 l/m 1,1 km/h (1 Bft) N-NO 31 3,8 C 9,6 C 6,4 km/h (2 Bft)
29.05.2020 20:30 9,8 C 66 % 1025,6 hPa 0,0 l/m 1,2 km/h (1 Bft) NW 322 3,8 C 9,8 C 4,8 km/h (1 Bft)
29.05.2020 20:25 9,9 C 66 % 1025,5 hPa 0,0 l/m 2,9 km/h (1 Bft) W-NW 290 3,9 C 9,9 C 8,0 km/h (2 Bft)
29.05.2020 20:20 10,0 C 65 % 1025,5 hPa 0,0 l/m 2,3 km/h (1 Bft) W-NW 293 3,7 C 10,0 C 11,3 km/h (2 Bft)
29.05.2020 20:15 10,1 C 65 % 1025,5 hPa 0,0 l/m 2,4 km/h (1 Bft) N 11 3,8 C 10,1 C 6,4 km/h (2 Bft)
29.05.2020 20:10 10,3 C 64 % 1025,5 hPa 0,0 l/m 2,0 km/h (1 Bft) N-NW 327 3,8 C 10,3 C 8,0 km/h (2 Bft)
29.05.2020 20:05 10,4 C 62 % 1025,6 hPa 0,0 l/m 3,0 km/h (1 Bft) N 351 3,4 C 10,4 C 6,4 km/h (2 Bft)
29.05.2020 20:00 10,6 C 62 % 1025,6 hPa 0,0 l/m 4,3 km/h (1 Bft) N-NO 31 3,6 C 10,6 C 14,5 km/h (3 Bft)
29.05.2020 19:55 10,9 C 61 % 1025,6 hPa 0,0 l/m 3,9 km/h (1 Bft) N-NW 327 3,7 C 10,9 C 12,9 km/h (3 Bft)
29.05.2020 19:50 11,1 C 61 % 1025,6 hPa 0,0 l/m 4,2 km/h (1 Bft) NO 56 3,9 C 11,1 C 12,9 km/h (3 Bft)
29.05.2020 19:45 11,2 C 60 % 1025,7 hPa 0,0 l/m 3,7 km/h (1 Bft) W-SW 244 3,7 C 11,2 C 11,3 km/h (2 Bft)
29.05.2020 19:40 11,1 C 60 % 1025,7 hPa 0,0 l/m 6,8 km/h (2 Bft) N-NO 24 3,6 C 10,8 C 16,1 km/h (3 Bft)
29.05.2020 19:35 10,8 C 61 % 1025,7 hPa 0,0 l/m 5,1 km/h (1 Bft) N-NO 28 3,6 C 10,8 C 12,9 km/h (3 Bft)
29.05.2020 19:30 10,7 C 62 % 1025,7 hPa 0,0 l/m 3,8 km/h (1 Bft) NO 36 3,7 C 10,7 C 16,1 km/h (3 Bft)
29.05.2020 19:25 10,5 C 62 % 1025,7 hPa 0,0 l/m 2,9 km/h (1 Bft) N-NW 328 3,5 C 10,5 C 11,3 km/h (2 Bft)
29.05.2020 19:20 10,4 C 63 % 1025,8 hPa 0,0 l/m 3,3 km/h (1 Bft) N 355 3,7 C 10,4 C 9,7 km/h (2 Bft)
29.05.2020 19:15 10,2 C 63 % 1025,9 hPa 0,0 l/m 2,0 km/h (1 Bft) N 5 3,5 C 10,2 C 6,4 km/h (2 Bft)
29.05.2020 19:10 10,3 C 62 % 1025,9 hPa 0,0 l/m 3,6 km/h (1 Bft) N 351 3,3 C 10,3 C 14,5 km/h (3 Bft)
29.05.2020 19:05 10,3 C 62 % 1025,9 hPa 0,0 l/m 2,1 km/h (1 Bft) W-SW 252 3,3 C 10,3 C 6,4 km/h (2 Bft)
29.05.2020 19:00 10,4 C 62 % 1025,8 hPa 0,0 l/m 1,9 km/h (1 Bft) N-NO 16 3,4 C 10,4 C 6,4 km/h (2 Bft)
29.05.2020 18:55 10,5 C 61 % 1025,9 hPa 0,0 l/m 0,7 km/h (0 Bft) W-NW 298 3,3 C 10,5 C 3,2 km/h (1 Bft)
29.05.2020 18:50 10,7 C 60 % 1026,0 hPa 0,0 l/m 4,5 km/h (1 Bft) N-NW 337 3,3 C 10,7 C 12,9 km/h (3 Bft)
29.05.2020 18:45 10,9 C 59 % 1026,0 hPa 0,0 l/m 3,3 km/h (1 Bft) N-NW 338 3,2 C 10,9 C 16,1 km/h (3 Bft)
29.05.2020 18:40 11,2 C 57 % 1026,0 hPa 0,0 l/m 5,4 km/h (1 Bft) NO 35 3,0 C 11,2 C 12,9 km/h (3 Bft)
29.05.2020 18:35 11,7 C 54 % 1026,0 hPa 0,0 l/m 7,5 km/h (2 Bft) N-NO 14 2,7 C 11,0 C 17,7 km/h (3 Bft)
29.05.2020 18:30 12,3 C 53 % 1026,0 hPa 0,0 l/m 6,6 km/h (2 Bft) N 5 3,0 C 12,2 C 14,5 km/h (3 Bft)
29.05.2020 18:25 12,5 C 53 % 1026,1 hPa 0,0 l/m 6,6 km/h (2 Bft) N-NO 20 3,2 C 12,4 C 19,3 km/h (3 Bft)
29.05.2020 18:20 12,6 C 53 % 1026,1 hPa 0,0 l/m 8,6 km/h (2 Bft) O-NO 61 3,3 C 11,2 C 19,3 km/h (3 Bft)
29.05.2020 18:15 13,1 C 53 % 1026,1 hPa 0,0 l/m 9,6 km/h (2 Bft) O-NO 66 3,7 C 11,2 C 24,1 km/h (4 Bft)
29.05.2020 18:10 13,6 C 50 % 1026,1 hPa 0,0 l/m 10,2 km/h (2 Bft) NO 48 3,4 C 11,5 C 22,5 km/h (4 Bft)
29.05.2020 18:05 13,7 C 52 % 1026,0 hPa 0,0 l/m 8,3 km/h (2 Bft) N-NO 32 4,0 C 12,6 C 27,4 km/h (4 Bft)
29.05.2020 18:00 13,2 C 54 % 1026,0 hPa 0,0 l/m 6,1 km/h (2 Bft) NW 314 4,1 C 13,2 C 14,5 km/h (3 Bft)
29.05.2020 17:55 12,9 C 54 % 1026,0 hPa 0,0 l/m 7,2 km/h (2 Bft) N 360 3,8 C 12,4 C 19,3 km/h (3 Bft)
29.05.2020 17:50 12,8 C 54 % 1026,1 hPa 0,0 l/m 5,5 km/h (1 Bft) N-NO 22 3,7 C 12,8 C 14,5 km/h (3 Bft)
29.05.2020 17:45 12,5 C 56 % 1026,1 hPa 0,0 l/m 4,0 km/h (1 Bft) NO 44 4,0 C 12,5 C 11,3 km/h (2 Bft)
29.05.2020 17:40 11,7 C 57 % 1026,2 hPa 0,0 l/m 4,6 km/h (1 Bft) N-NW 334 3,5 C 11,7 C 12,9 km/h (3 Bft)
29.05.2020 17:35 11,6 C 55 % 1026,3 hPa 0,0 l/m 6,6 km/h (2 Bft) N-NO 13 2,9 C 11,5 C 16,1 km/h (3 Bft)
29.05.2020 17:30 11,6 C 56 % 1026,3 hPa 0,0 l/m 5,5 km/h (1 Bft) W-SW 256 3,1 C 11,6 C 19,3 km/h (3 Bft)
29.05.2020 17:25 11,6 C 56 % 1026,3 hPa 0,0 l/m 9,0 km/h (2 Bft) NO 43 3,1 C 9,9 C 22,5 km/h (4 Bft)
29.05.2020 17:20 11,9 C 55 % 1026,2 hPa 0,0 l/m 9,6 km/h (2 Bft) NO 36 3,2 C 9,9 C 24,1 km/h (4 Bft)
29.05.2020 17:15 12,0 C 54 % 1026,2 hPa 0,0 l/m 7,2 km/h (2 Bft) N 360 3,0 C 11,5 C 16,1 km/h (3 Bft)
_ Min-Zeit 02:30 15:45 01:05 - 02:00 - - 15:45 02:25 02:00
Minimum _ 3,0 C 45 % 1024,7 hPa - 0,0 km/h (0 Bft) - - 1,6 C 3,1 C 0,0 km/h (0 Bft)
_ Max-Zeit 15:40 03:45 06:35 02:00 16:30 - - 09:05 16:25 10:00
Maximum _ 14,5 C 97 % 1028,8 hPa 0,0 l/m 12,8 km/h
N (3 Bft)
- - 6,5 C 14,0 C 27,4 km/h
N-NO (4 Bft)
Durchschnitt _ 8,6 C 75 % 1027,3 hPa #0,0 l/m 3,5 km/h (1 Bft) N - 3,9 C 8,3 C 8,9 km/h (2 Bft)